createdAt,value
2023-04-14T00:00:40.541Z,24.85
2023-04-14T00:01:40.628Z,24.84
2023-04-14T00:02:40.637Z,24.84
2023-04-14T00:03:40.774Z,24.85
2023-04-14T00:04:40.806Z,24.84
2023-04-14T00:05:40.643Z,24.85
2023-04-14T00:06:40.643Z,24.83
2023-04-14T00:07:40.697Z,24.83
2023-04-14T00:08:40.699Z,24.83
2023-04-14T00:09:40.732Z,24.84
2023-04-14T00:10:40.758Z,24.83
2023-04-14T00:11:40.755Z,24.84
2023-04-14T00:12:40.752Z,24.84
2023-04-14T00:13:40.779Z,24.83
2023-04-14T00:14:40.785Z,24.81
2023-04-14T00:15:40.805Z,24.83
2023-04-14T00:16:40.858Z,24.84
2023-04-14T00:17:40.992Z,24.83
2023-04-14T00:18:40.897Z,24.84
2023-04-14T00:19:40.941Z,24.83
2023-04-14T00:20:40.950Z,24.85
2023-04-14T00:21:40.966Z,24.83
2023-04-14T00:22:40.978Z,24.83
2023-04-14T00:23:41.039Z,24.83
2023-04-14T00:24:41.074Z,24.83
2023-04-14T00:25:41.093Z,24.81
2023-04-14T00:26:41.083Z,24.81
2023-04-14T00:27:41.091Z,24.83
2023-04-14T00:28:41.177Z,24.81
2023-04-14T00:29:41.253Z,24.81
2023-04-14T00:30:41.261Z,24.83
2023-04-14T00:31:41.355Z,24.81
2023-04-14T00:32:41.295Z,24.81
2023-04-14T00:33:41.255Z,24.80
2023-04-14T00:34:41.323Z,24.78
2023-04-14T00:35:41.339Z,24.81
2023-04-14T00:36:41.364Z,24.80
2023-04-14T00:37:41.400Z,24.83
2023-04-14T00:38:41.411Z,24.78
2023-04-14T00:39:41.468Z,24.80
2023-04-14T00:40:41.485Z,24.80
2023-04-14T00:41:41.487Z,24.78
2023-04-14T00:42:41.512Z,24.78
2023-04-14T00:43:41.521Z,24.80
2023-04-14T00:44:41.560Z,24.80
2023-04-14T00:45:41.599Z,24.78
2023-04-14T00:46:41.641Z,24.80
2023-04-14T00:47:41.582Z,24.78
2023-04-14T00:48:41.628Z,24.83
2023-04-14T00:49:41.657Z,24.77
2023-04-14T00:50:41.681Z,24.78
2023-04-14T00:51:41.690Z,24.80
2023-04-14T00:52:41.710Z,24.77
2023-04-14T00:53:41.752Z,24.78
2023-04-14T00:54:41.768Z,24.75
2023-04-14T00:55:41.769Z,24.78
2023-04-14T00:56:41.821Z,24.77
2023-04-14T00:57:41.815Z,24.77
2023-04-14T00:58:41.806Z,24.77
2023-04-14T00:59:41.813Z,24.75
2023-04-14T01:00:41.816Z,24.78
2023-04-14T01:01:41.873Z,24.77
2023-04-14T01:02:42.024Z,24.77
2023-04-14T01:03:42.069Z,24.75
2023-04-14T01:04:53.508Z,24.77
2023-04-14T01:05:42.928Z,24.77
2023-04-14T01:06:41.899Z,24.75
2023-04-14T01:07:41.888Z,24.77
2023-04-14T01:08:41.851Z,24.77
2023-04-14T01:09:41.896Z,24.75
2023-04-14T01:10:41.851Z,24.77
2023-04-14T01:11:41.850Z,24.75
2023-04-14T01:12:41.829Z,24.77
2023-04-14T01:13:41.821Z,24.75
2023-04-14T01:14:41.839Z,24.75
2023-04-14T01:15:41.902Z,24.74
2023-04-14T01:16:41.802Z,24.75
2023-04-14T01:17:41.863Z,24.75
2023-04-14T01:18:41.844Z,24.74
2023-04-14T01:19:41.796Z,24.75
2023-04-14T01:20:41.848Z,24.74
2023-04-14T01:21:41.808Z,24.73
2023-04-14T01:22:41.779Z,24.75
2023-04-14T01:23:41.804Z,24.75
2023-04-14T01:24:41.777Z,24.75
2023-04-14T01:25:41.770Z,24.74
2023-04-14T01:26:41.744Z,24.73
2023-04-14T01:27:41.764Z,24.74
2023-04-14T01:28:41.755Z,24.74
2023-04-14T01:29:41.737Z,24.75
2023-04-14T01:30:41.738Z,24.73
2023-04-14T01:31:41.781Z,24.71
2023-04-14T01:32:41.729Z,24.74
2023-04-14T01:33:41.707Z,24.74
2023-04-14T01:34:41.700Z,24.73
2023-04-14T01:35:41.708Z,24.70
2023-04-14T01:36:41.696Z,24.71
2023-04-14T01:37:41.699Z,24.71
2023-04-14T01:38:41.679Z,24.71
2023-04-14T01:39:41.735Z,24.71
2023-04-14T01:40:41.728Z,24.70
2023-04-14T01:41:41.737Z,24.71
2023-04-14T01:42:41.732Z,24.70
2023-04-14T01:43:41.724Z,24.70
2023-04-14T01:44:41.731Z,24.71
2023-04-14T01:45:41.787Z,24.71
2023-04-14T01:46:41.785Z,24.71
2023-04-14T01:47:41.844Z,24.71
2023-04-14T01:48:41.763Z,24.70
2023-04-14T01:49:41.787Z,24.71
2023-04-14T01:50:41.732Z,24.70
2023-04-14T01:51:41.825Z,24.70
2023-04-14T01:52:41.749Z,24.68
2023-04-14T01:53:41.714Z,24.68
2023-04-14T01:54:41.693Z,24.68
2023-04-14T01:55:41.772Z,24.70
2023-04-14T01:56:41.709Z,24.68
2023-04-14T01:57:41.689Z,24.68
2023-04-14T01:58:41.684Z,24.70
2023-04-14T01:59:41.750Z,24.68
2023-04-14T02:00:41.726Z,24.68
2023-04-14T02:01:41.677Z,24.70
2023-04-14T02:02:41.849Z,24.68
2023-04-14T02:03:41.826Z,24.66
2023-04-14T02:04:41.710Z,24.67
2023-04-14T02:05:41.705Z,24.67
2023-04-14T02:06:41.697Z,24.67
2023-04-14T02:07:41.709Z,24.67
2023-04-14T02:08:41.730Z,24.67
2023-04-14T02:09:41.742Z,24.68
2023-04-14T02:10:41.737Z,24.67
2023-04-14T02:11:41.732Z,24.68
2023-04-14T02:12:41.715Z,24.67
2023-04-14T02:13:41.739Z,24.67
2023-04-14T02:14:41.732Z,24.67
2023-04-14T02:15:41.753Z,24.66
2023-04-14T02:16:41.792Z,24.66
2023-04-14T02:17:41.825Z,24.66
2023-04-14T02:18:41.737Z,24.67
2023-04-14T02:19:41.746Z,24.66
2023-04-14T02:20:41.727Z,24.66
2023-04-14T02:21:41.737Z,24.67
2023-04-14T02:22:41.774Z,24.66
2023-04-14T02:23:41.712Z,24.67
2023-04-14T02:24:41.708Z,24.66
2023-04-14T02:25:41.728Z,24.63
2023-04-14T02:26:41.703Z,24.64
2023-04-14T02:27:41.739Z,24.63
2023-04-14T02:28:41.734Z,24.64
2023-04-14T02:29:41.740Z,24.64
2023-04-14T02:30:41.783Z,24.66
2023-04-14T02:31:41.694Z,24.64
2023-04-14T02:32:41.781Z,24.64
2023-04-14T02:33:41.690Z,24.64
2023-04-14T02:34:41.719Z,24.64
2023-04-14T02:35:41.781Z,24.63
2023-04-14T02:36:41.789Z,24.63
2023-04-14T02:37:41.727Z,24.63
2023-04-14T02:38:41.833Z,24.63
2023-04-14T02:39:41.849Z,24.63
2023-04-14T02:40:41.797Z,24.64
2023-04-14T02:41:41.797Z,24.63
2023-04-14T02:42:41.743Z,24.64
2023-04-14T02:43:41.846Z,24.64
2023-04-14T02:44:41.711Z,24.63
2023-04-14T02:45:41.760Z,24.63
2023-04-14T02:46:41.898Z,24.63
2023-04-14T02:47:41.832Z,24.62
2023-04-14T02:48:41.759Z,24.63
2023-04-14T02:49:41.745Z,24.63
2023-04-14T02:50:41.724Z,24.62
2023-04-14T02:51:41.756Z,24.62
2023-04-14T02:52:41.757Z,24.62
2023-04-14T02:53:41.747Z,24.62
2023-04-14T02:54:41.738Z,24.60
2023-04-14T02:55:41.740Z,24.60
2023-04-14T02:56:41.757Z,24.60
2023-04-14T02:57:41.769Z,24.62
2023-04-14T02:58:41.760Z,24.60
2023-04-14T02:59:41.755Z,24.60
2023-04-14T03:00:41.813Z,24.62
2023-04-14T03:01:41.813Z,24.62
2023-04-14T03:02:41.898Z,24.60
2023-04-14T03:03:41.812Z,24.60
2023-04-14T03:04:41.926Z,24.62
2023-04-14T03:05:41.806Z,24.62
2023-04-14T03:06:41.784Z,24.59
2023-04-14T03:07:41.791Z,24.59
2023-04-14T03:08:41.785Z,24.59
2023-04-14T03:09:41.810Z,24.62
2023-04-14T03:10:41.825Z,24.60
2023-04-14T03:11:41.819Z,24.60
2023-04-14T03:12:41.827Z,24.59
2023-04-14T03:13:41.841Z,24.56
2023-04-14T03:14:41.813Z,24.60
2023-04-14T03:15:41.866Z,24.57
2023-04-14T03:16:41.816Z,24.59
2023-04-14T03:17:41.845Z,24.59
2023-04-14T03:18:41.852Z,24.59
2023-04-14T03:19:41.828Z,24.59
2023-04-14T03:20:41.851Z,24.59
2023-04-14T03:21:41.841Z,24.56
2023-04-14T03:22:41.865Z,24.57
2023-04-14T03:23:41.838Z,24.59
2023-04-14T03:24:41.844Z,24.56
2023-04-14T03:25:41.877Z,24.59
2023-04-14T03:26:41.814Z,24.57
2023-04-14T03:27:41.835Z,24.59
2023-04-14T03:28:41.844Z,24.57
2023-04-14T03:29:41.835Z,24.56
2023-04-14T03:30:41.851Z,24.56
2023-04-14T03:31:41.919Z,24.59
2023-04-14T03:32:42.210Z,24.54
2023-04-14T03:33:41.887Z,24.57
2023-04-14T03:34:41.901Z,24.54
2023-04-14T03:35:41.932Z,24.57
2023-04-14T03:36:41.904Z,24.56
2023-04-14T03:37:41.895Z,24.54
2023-04-14T03:38:41.895Z,24.57
2023-04-14T03:39:41.919Z,24.54
2023-04-14T03:40:41.932Z,24.56
2023-04-14T03:41:41.914Z,24.53
2023-04-14T03:42:41.928Z,24.56
2023-04-14T03:43:41.934Z,24.54
2023-04-14T03:44:41.940Z,24.56
2023-04-14T03:45:41.965Z,24.56
2023-04-14T03:46:41.970Z,24.54
2023-04-14T03:47:42.040Z,24.57
2023-04-14T03:48:41.984Z,24.57
2023-04-14T03:49:42.004Z,24.53
2023-04-14T03:50:42.037Z,24.54
2023-04-14T03:51:42.041Z,24.56
2023-04-14T03:52:42.026Z,24.54
2023-04-14T03:53:42.043Z,24.56
2023-04-14T03:54:42.077Z,24.53
2023-04-14T03:55:42.050Z,24.54
2023-04-14T03:56:42.044Z,24.54
2023-04-14T03:57:42.060Z,24.53
2023-04-14T03:58:42.032Z,24.53
2023-04-14T03:59:42.058Z,24.56
2023-04-14T04:00:42.099Z,24.52
2023-04-14T04:01:42.098Z,24.52
2023-04-14T04:02:42.321Z,24.53
2023-04-14T04:03:42.416Z,24.53
2023-04-14T04:04:42.347Z,24.53
2023-04-14T04:05:42.126Z,24.52
2023-04-14T04:06:42.078Z,24.53
2023-04-14T04:07:42.120Z,24.53
2023-04-14T04:08:42.133Z,24.52
2023-04-14T04:09:42.149Z,24.50
2023-04-14T04:10:42.142Z,24.52
2023-04-14T04:11:42.150Z,24.53
2023-04-14T04:12:42.127Z,24.52
2023-04-14T04:13:42.164Z,24.53
2023-04-14T04:14:42.181Z,24.52
2023-04-14T04:15:42.226Z,24.52
2023-04-14T04:16:42.332Z,24.53
2023-04-14T04:17:42.265Z,24.50
2023-04-14T04:18:42.234Z,24.52
2023-04-14T04:19:42.237Z,24.50
2023-04-14T04:20:42.251Z,24.50
2023-04-14T04:21:42.265Z,24.49
2023-04-14T04:22:42.264Z,24.52
2023-04-14T04:23:42.263Z,24.50
2023-04-14T04:24:42.298Z,24.50
2023-04-14T04:25:42.296Z,24.50
2023-04-14T04:26:42.312Z,24.52
2023-04-14T04:27:42.311Z,24.52
2023-04-14T04:28:42.326Z,24.50
2023-04-14T04:29:42.364Z,24.50
2023-04-14T04:30:42.355Z,24.52
2023-04-14T04:31:42.384Z,24.50
2023-04-14T04:32:42.433Z,24.47
2023-04-14T04:33:42.339Z,24.49
2023-04-14T04:34:42.372Z,24.53
2023-04-14T04:35:42.385Z,24.49
2023-04-14T04:36:42.369Z,24.47
2023-04-14T04:37:42.364Z,24.47
2023-04-14T04:38:42.370Z,24.47
2023-04-14T04:39:42.383Z,24.49
2023-04-14T04:40:42.416Z,24.49
2023-04-14T04:41:42.420Z,24.49
2023-04-14T04:42:42.402Z,24.49
2023-04-14T04:43:42.415Z,24.47
2023-04-14T04:44:42.438Z,24.47
2023-04-14T04:45:42.492Z,24.49
2023-04-14T04:46:42.450Z,24.47
2023-04-14T04:47:42.509Z,24.46
2023-04-14T04:48:42.477Z,24.47
2023-04-14T04:49:42.491Z,24.46
2023-04-14T04:50:42.590Z,24.49
2023-04-14T04:51:42.502Z,24.46
2023-04-14T04:52:42.531Z,24.47
2023-04-14T04:53:42.547Z,24.47
2023-04-14T04:54:42.596Z,24.47
2023-04-14T04:55:42.582Z,24.47
2023-04-14T04:56:42.611Z,24.49
2023-04-14T04:57:42.586Z,24.47
2023-04-14T04:58:42.615Z,24.46
2023-04-14T04:59:43.140Z,24.47
2023-04-14T05:00:42.650Z,24.47
2023-04-14T05:01:42.742Z,24.46
2023-04-14T05:02:42.761Z,24.46
2023-04-14T05:03:42.674Z,24.47
2023-04-14T05:04:42.817Z,24.46
2023-04-14T05:05:42.719Z,24.46
2023-04-14T05:06:42.757Z,24.46
2023-04-14T05:07:42.771Z,24.46
2023-04-14T05:08:42.740Z,24.46
2023-04-14T05:09:42.803Z,24.47
2023-04-14T05:10:42.808Z,24.43
2023-04-14T05:11:42.855Z,24.43
2023-04-14T05:12:42.852Z,24.46
2023-04-14T05:13:42.860Z,24.46
2023-04-14T05:14:42.865Z,24.46
2023-04-14T05:15:42.961Z,24.44
2023-04-14T05:16:42.938Z,24.42
2023-04-14T05:17:43.007Z,24.44
2023-04-14T05:18:42.967Z,24.44
2023-04-14T05:19:42.975Z,24.44
2023-04-14T05:20:42.994Z,24.44
2023-04-14T05:21:42.986Z,24.46
2023-04-14T05:22:42.988Z,24.44
2023-04-14T05:23:43.034Z,24.43
2023-04-14T05:24:43.037Z,24.43
2023-04-14T05:25:43.082Z,24.43
2023-04-14T05:26:51.888Z,24.46
2023-04-14T05:27:44.100Z,24.44
2023-04-14T05:28:43.104Z,24.43
2023-04-14T05:29:43.109Z,24.44
2023-04-14T05:30:43.060Z,24.44
2023-04-14T05:31:43.176Z,24.43
2023-04-14T05:32:43.079Z,24.46
2023-04-14T05:33:43.032Z,24.43
2023-04-14T05:34:43.014Z,24.44
2023-04-14T05:35:43.009Z,24.43
2023-04-14T05:36:42.996Z,24.42
2023-04-14T05:37:42.995Z,24.44
2023-04-14T05:38:43.023Z,24.42
2023-04-14T05:39:43.017Z,24.43
2023-04-14T05:40:43.005Z,24.42
2023-04-14T05:41:42.995Z,24.46
2023-04-14T05:42:42.985Z,24.46
2023-04-14T05:43:42.965Z,24.47
2023-04-14T05:44:43.013Z,24.50
2023-04-14T05:45:42.943Z,24.53
2023-04-14T05:46:43.003Z,24.57
2023-04-14T05:47:42.965Z,24.56
2023-04-14T05:48:42.971Z,24.59
2023-04-14T05:49:42.924Z,24.60
2023-04-14T05:50:42.922Z,24.63
2023-04-14T05:51:42.918Z,24.68
2023-04-14T05:52:42.917Z,24.71
2023-04-14T05:53:42.868Z,24.74
2023-04-14T05:54:43.307Z,24.77
2023-04-14T05:55:43.176Z,24.75
2023-04-14T05:56:42.874Z,24.83
2023-04-14T05:57:42.871Z,24.87
2023-04-14T05:58:42.976Z,24.94
2023-04-14T05:59:43.000Z,24.95
2023-04-14T06:00:43.089Z,25.01
2023-04-14T06:01:43.228Z,25.07
2023-04-14T06:02:43.349Z,25.07
2023-04-14T06:03:43.472Z,25.13
2023-04-14T06:04:43.521Z,25.18
2023-04-14T06:05:43.322Z,25.17
2023-04-14T06:06:43.400Z,25.24
2023-04-14T06:07:43.412Z,25.25
2023-04-14T06:08:43.423Z,25.28
2023-04-14T06:09:43.465Z,25.31
2023-04-14T06:10:43.482Z,25.35
2023-04-14T06:11:43.580Z,25.38
2023-04-14T06:12:43.577Z,25.38
2023-04-14T06:13:43.595Z,25.39
2023-04-14T06:14:43.625Z,25.42
2023-04-14T06:15:43.664Z,25.44
2023-04-14T06:16:43.716Z,25.45
2023-04-14T06:17:43.758Z,25.44
2023-04-14T06:18:43.735Z,25.45
2023-04-14T06:19:43.837Z,25.46
2023-04-14T06:20:43.833Z,25.48
2023-04-14T06:21:43.807Z,25.48
2023-04-14T06:22:43.869Z,25.50
2023-04-14T06:23:43.947Z,25.53
2023-04-14T06:24:43.907Z,25.55
2023-04-14T06:25:43.891Z,25.58
2023-04-14T06:26:43.891Z,25.55
2023-04-14T06:27:43.934Z,25.58
2023-04-14T06:28:44.342Z,25.58
2023-04-14T06:29:43.963Z,25.61
2023-04-14T06:30:43.994Z,25.59
2023-04-14T06:31:43.962Z,25.62
2023-04-14T06:32:44.027Z,25.58
2023-04-14T06:33:43.964Z,25.59
2023-04-14T06:34:43.984Z,25.58
2023-04-14T06:35:43.948Z,25.58
2023-04-14T06:36:44.037Z,25.58
2023-04-14T06:37:44.015Z,25.59
2023-04-14T06:38:43.886Z,25.64
2023-04-14T06:39:43.995Z,25.62
2023-04-14T06:40:44.000Z,25.64
2023-04-14T06:41:43.989Z,25.65
2023-04-14T06:42:43.901Z,25.66
2023-04-14T06:43:43.934Z,25.70
2023-04-14T06:44:43.906Z,25.68
2023-04-14T06:45:43.906Z,25.68
2023-04-14T06:46:44.208Z,25.69
2023-04-14T06:47:43.953Z,25.72
2023-04-14T06:48:43.906Z,25.69
2023-04-14T06:49:43.933Z,25.72
2023-04-14T06:50:44.664Z,25.70
2023-04-14T06:51:44.207Z,25.75
2023-04-14T06:52:44.686Z,25.76
2023-04-14T06:53:43.940Z,25.76
2023-04-14T06:54:43.904Z,25.80
2023-04-14T06:55:43.902Z,25.76
2023-04-14T06:56:44.237Z,25.76
2023-04-14T06:57:43.928Z,25.75
2023-04-14T06:58:43.976Z,25.77
2023-04-14T06:59:43.954Z,25.76
2023-04-14T07:00:43.917Z,25.75
2023-04-14T07:01:44.052Z,25.75
2023-04-14T07:02:44.058Z,25.72
2023-04-14T07:03:44.017Z,25.73
2023-04-14T07:04:44.116Z,25.75
2023-04-14T07:05:44.080Z,25.76
2023-04-14T07:06:44.246Z,25.73
2023-04-14T07:07:44.163Z,25.72
2023-04-14T07:08:44.257Z,25.76
2023-04-14T07:09:44.302Z,25.77
2023-04-14T07:10:44.257Z,25.73
2023-04-14T07:11:44.304Z,25.73
2023-04-14T07:12:44.314Z,25.75
2023-04-14T07:13:44.371Z,25.77
2023-04-14T07:14:44.387Z,25.77
2023-04-14T07:15:44.421Z,25.80
2023-04-14T07:16:44.475Z,25.79
2023-04-14T07:17:44.549Z,25.80
2023-04-14T07:18:44.599Z,25.77
2023-04-14T07:19:44.581Z,25.79
2023-04-14T07:20:44.651Z,25.77
2023-04-14T07:21:44.779Z,25.79
2023-04-14T07:22:44.772Z,25.79
2023-04-14T07:23:44.786Z,25.79
2023-04-14T07:24:44.837Z,25.80
2023-04-14T07:25:44.947Z,25.82
2023-04-14T07:26:45.009Z,25.82
2023-04-14T07:27:56.220Z,25.79
2023-04-14T07:28:46.035Z,25.83
2023-04-14T07:29:45.028Z,25.85
2023-04-14T07:30:45.024Z,25.83
2023-04-14T07:31:45.100Z,25.83
2023-04-14T07:32:45.085Z,25.86
2023-04-14T07:33:44.998Z,25.90
2023-04-14T07:34:45.001Z,25.87
2023-04-14T07:35:58.248Z,25.97
2023-04-14T07:36:45.988Z,26.07
2023-04-14T07:37:44.962Z,26.13
2023-04-14T07:38:44.965Z,26.20
2023-04-14T07:39:44.978Z,26.24
2023-04-14T07:40:44.941Z,26.30
2023-04-14T07:41:45.237Z,26.33
2023-04-14T07:42:44.962Z,26.28
2023-04-14T07:43:44.957Z,26.28
2023-04-14T07:44:44.949Z,26.27
2023-04-14T07:45:44.947Z,26.24
2023-04-14T07:46:45.179Z,26.27
2023-04-14T07:47:45.024Z,26.28
2023-04-14T07:48:44.975Z,26.16
2023-04-14T07:49:45.019Z,25.99
2023-04-14T07:50:45.027Z,25.79
2023-04-14T07:51:45.056Z,25.66
2023-04-14T07:52:45.063Z,25.58
2023-04-14T07:53:45.186Z,25.46
2023-04-14T07:54:45.130Z,25.39
2023-04-14T07:55:45.130Z,25.31
2023-04-14T07:56:45.188Z,25.22
2023-04-14T07:57:45.149Z,25.14
2023-04-14T07:58:45.180Z,25.08
2023-04-14T07:59:45.228Z,25.04
2023-04-14T08:00:45.203Z,24.99
2023-04-14T08:01:45.279Z,24.97
2023-04-14T08:02:45.268Z,24.98
2023-04-14T08:03:45.719Z,25.01
2023-04-14T08:04:45.284Z,25.05
2023-04-14T08:05:45.433Z,25.10
2023-04-14T08:06:45.377Z,25.14
2023-04-14T08:07:45.432Z,25.19
2023-04-14T08:08:45.494Z,25.26
2023-04-14T08:09:45.504Z,25.31
2023-04-14T08:10:45.533Z,25.36
2023-04-14T08:11:45.576Z,25.39
2023-04-14T08:12:45.591Z,25.46
2023-04-14T08:13:45.616Z,25.52
2023-04-14T08:14:45.634Z,25.52
2023-04-14T08:15:45.652Z,25.56
2023-04-14T08:16:45.715Z,25.61
2023-04-14T08:17:45.680Z,25.58
2023-04-14T08:18:45.579Z,25.62
2023-04-14T08:19:45.614Z,25.64
2023-04-14T08:20:45.627Z,25.66
2023-04-14T08:21:45.672Z,25.68
2023-04-14T08:22:45.660Z,25.70
2023-04-14T08:23:45.656Z,25.72
2023-04-14T08:24:45.656Z,25.72
2023-04-14T08:25:45.677Z,25.75
2023-04-14T08:26:45.764Z,25.76
2023-04-14T08:27:45.742Z,25.77
2023-04-14T08:28:45.756Z,25.82
2023-04-14T08:31:04.430Z,25.80
2023-04-14T08:32:04.471Z,25.77
2023-04-14T08:33:04.442Z,25.72
2023-04-14T08:34:04.446Z,25.69
2023-04-14T08:35:38.943Z,25.53
2023-04-14T08:36:05.400Z,25.34
2023-04-14T08:37:04.628Z,25.21
2023-04-14T08:38:04.353Z,25.18
2023-04-14T08:39:04.324Z,25.15
2023-04-14T08:40:04.338Z,25.13
2023-04-14T08:41:04.384Z,25.11
2023-04-14T08:42:04.562Z,25.15
2023-04-14T08:43:04.331Z,25.21
2023-04-14T08:44:04.308Z,25.22
2023-04-14T08:45:04.328Z,25.24
2023-04-14T08:46:04.318Z,25.21
2023-04-14T08:47:04.318Z,24.93
2023-04-14T08:48:04.427Z,24.71
2023-04-14T08:49:04.278Z,24.53
2023-04-14T08:50:04.355Z,24.23
2023-04-14T08:51:04.290Z,23.72
2023-04-14T08:52:04.261Z,23.09
2023-04-14T08:53:04.274Z,22.79
2023-04-14T08:54:04.434Z,22.69
2023-04-14T08:55:04.273Z,22.62
2023-04-14T08:56:05.098Z,22.60
2023-04-14T08:57:04.316Z,22.66
2023-04-14T08:58:04.363Z,22.74
2023-04-14T08:59:04.422Z,22.89
2023-04-14T09:00:04.444Z,23.00
2023-04-14T09:01:04.472Z,23.11
2023-04-14T09:02:04.733Z,23.24
2023-04-14T09:03:04.729Z,23.41
2023-04-14T09:04:05.035Z,23.54
2023-04-14T09:05:04.588Z,23.68
2023-04-14T09:06:04.679Z,23.81
2023-04-14T09:07:04.658Z,23.93
2023-04-14T09:08:04.721Z,24.05
2023-04-14T09:09:04.687Z,24.16
2023-04-14T09:10:04.729Z,24.26
2023-04-14T09:11:04.722Z,24.39
2023-04-14T09:12:05.145Z,24.46
2023-04-14T09:13:04.795Z,24.56
2023-04-14T09:14:05.019Z,24.66
2023-04-14T09:15:04.849Z,24.73
2023-04-14T09:16:04.939Z,24.81
2023-04-14T09:17:05.220Z,24.87
2023-04-14T09:18:05.155Z,24.97
2023-04-14T09:19:07.385Z,25.01
2023-04-14T09:20:38.194Z,25.07
2023-04-14T09:21:30.335Z,25.13
2023-04-14T09:22:06.062Z,25.18
2023-04-14T09:23:05.061Z,25.24
2023-04-14T09:24:06.644Z,25.28
2023-04-14T09:25:05.035Z,25.34
2023-04-14T09:26:05.064Z,25.38
2023-04-14T09:27:05.044Z,25.42
2023-04-14T09:28:05.026Z,25.46
2023-04-14T09:29:05.020Z,25.46
2023-04-14T09:30:05.019Z,25.50
2023-04-14T09:31:05.043Z,25.55
2023-04-14T09:32:04.984Z,25.58
2023-04-14T09:33:05.106Z,25.58
2023-04-14T09:34:05.317Z,25.59
2023-04-14T09:35:04.976Z,25.65
2023-04-14T09:36:04.983Z,25.66
2023-04-14T09:37:04.953Z,25.68
2023-04-14T09:38:04.927Z,25.70
2023-04-14T09:39:04.949Z,25.70
2023-04-14T09:40:04.938Z,25.73
2023-04-14T09:41:04.920Z,25.76
2023-04-14T09:42:04.934Z,25.75
2023-04-14T09:43:04.900Z,25.72
2023-04-14T09:44:04.930Z,25.76
2023-04-14T09:45:04.936Z,25.73
2023-04-14T09:46:04.932Z,25.76
2023-04-14T09:47:05.164Z,25.76
2023-04-14T09:48:04.920Z,25.76
2023-04-14T09:49:04.904Z,25.76
2023-04-14T09:50:04.880Z,25.76
2023-04-14T09:51:04.875Z,25.79
2023-04-14T09:52:04.881Z,25.77
2023-04-14T09:53:04.835Z,25.80
2023-04-14T09:54:05.663Z,25.80
2023-04-14T09:55:04.869Z,25.83
2023-04-14T09:56:04.898Z,25.80
2023-04-14T09:57:04.925Z,25.80
2023-04-14T09:58:04.940Z,25.83
2023-04-14T09:59:05.228Z,25.83
2023-04-14T10:00:05.059Z,25.83
2023-04-14T10:01:05.065Z,25.83
2023-04-14T10:02:05.208Z,25.85
2023-04-14T10:03:05.252Z,25.85
2023-04-14T10:04:05.228Z,25.85
2023-04-14T10:05:05.422Z,25.85
2023-04-14T10:06:05.334Z,25.85
2023-04-14T10:07:05.395Z,25.80
2023-04-14T10:08:05.491Z,25.82
2023-04-14T10:09:05.520Z,25.83
2023-04-14T10:10:05.511Z,25.86
2023-04-14T10:11:05.597Z,25.85
2023-04-14T10:12:07.625Z,25.86
2023-04-14T10:13:05.638Z,25.87
2023-04-14T10:14:05.619Z,25.87
2023-04-14T10:15:05.608Z,25.90
2023-04-14T10:16:05.657Z,25.89
2023-04-14T10:17:05.613Z,25.90
2023-04-14T10:18:05.616Z,25.92
2023-04-14T10:19:06.189Z,25.92
2023-04-14T10:20:05.573Z,25.95
2023-04-14T10:21:05.573Z,25.97
2023-04-14T10:22:05.582Z,25.99
2023-04-14T10:23:05.555Z,26.03
2023-04-14T10:24:05.561Z,25.99
2023-04-14T10:25:05.551Z,26.01
2023-04-14T10:26:06.536Z,26.00
2023-04-14T10:27:05.533Z,26.04
2023-04-14T10:28:05.515Z,26.04
2023-04-14T10:29:05.524Z,26.06
2023-04-14T10:30:05.509Z,26.08
2023-04-14T10:31:05.544Z,26.10
2023-04-14T10:32:05.642Z,26.08
2023-04-14T10:33:05.537Z,26.12
2023-04-14T10:34:05.516Z,26.16
2023-04-14T10:35:05.508Z,26.16
2023-04-14T10:36:05.493Z,26.17
2023-04-14T10:37:05.646Z,26.19
2023-04-14T10:38:05.464Z,26.15
2023-04-14T10:39:05.527Z,26.07
2023-04-14T10:40:05.451Z,25.82
2023-04-14T10:41:05.444Z,25.62
2023-04-14T10:42:05.438Z,25.50
2023-04-14T10:43:05.438Z,25.41
2023-04-14T10:44:05.411Z,25.35
2023-04-14T10:45:05.394Z,25.32
2023-04-14T10:46:05.478Z,25.31
2023-04-14T10:47:05.754Z,25.28
2023-04-14T10:48:05.676Z,25.32
2023-04-14T10:49:05.412Z,25.35
2023-04-14T10:50:05.436Z,25.35
2023-04-14T10:51:05.505Z,25.41
2023-04-14T10:52:05.538Z,25.42
2023-04-14T10:53:05.642Z,25.42
2023-04-14T10:54:05.609Z,25.46
2023-04-14T10:55:05.675Z,25.48
2023-04-14T10:56:05.692Z,25.53
2023-04-14T10:57:05.750Z,25.52
2023-04-14T10:58:05.819Z,25.56
2023-04-14T10:59:05.761Z,25.55
2023-04-14T11:00:05.787Z,25.58
2023-04-14T11:01:05.860Z,25.61
2023-04-14T11:02:05.953Z,25.59
2023-04-14T11:03:05.998Z,25.61
2023-04-14T11:04:05.956Z,25.61
2023-04-14T11:05:05.955Z,25.61
2023-04-14T11:06:05.938Z,25.62
2023-04-14T11:07:05.969Z,25.62
2023-04-14T11:08:06.011Z,25.64
2023-04-14T11:09:06.026Z,25.64
2023-04-14T11:10:06.055Z,25.64
2023-04-14T11:11:06.095Z,25.61
2023-04-14T11:12:06.099Z,25.61
2023-04-14T11:13:06.160Z,25.55
2023-04-14T11:14:06.242Z,25.48
2023-04-14T11:15:06.227Z,25.48
2023-04-14T11:16:06.320Z,25.44
2023-04-14T11:17:06.425Z,25.44
2023-04-14T11:18:06.293Z,25.39
2023-04-14T11:19:06.263Z,25.36
2023-04-14T11:20:06.282Z,25.39
2023-04-14T11:21:06.382Z,25.36
2023-04-14T11:22:06.385Z,25.38
2023-04-14T11:23:06.480Z,25.35
2023-04-14T11:24:06.505Z,25.38
2023-04-14T11:25:06.558Z,25.36
2023-04-14T11:26:06.684Z,25.38
2023-04-14T11:27:06.688Z,25.34
2023-04-14T11:28:07.170Z,25.28
2023-04-14T11:29:06.757Z,25.17
2023-04-14T11:30:06.794Z,25.04
2023-04-14T11:31:06.837Z,24.95
2023-04-14T11:32:06.947Z,24.93
2023-04-14T11:33:07.253Z,24.88
2023-04-14T11:34:07.034Z,24.85
2023-04-14T11:35:07.055Z,24.83
2023-04-14T11:36:07.230Z,24.85
2023-04-14T11:37:07.131Z,24.85
2023-04-14T11:38:07.677Z,24.88
2023-04-14T11:39:07.142Z,24.88
2023-04-14T11:40:07.147Z,24.91
2023-04-14T11:41:07.138Z,24.93
2023-04-14T11:42:07.145Z,24.91
2023-04-14T11:43:07.129Z,24.94
2023-04-14T11:44:07.164Z,24.94
2023-04-14T11:45:07.154Z,24.93
2023-04-14T11:46:07.193Z,24.97
2023-04-14T11:47:07.216Z,24.99
2023-04-14T11:48:07.410Z,24.99
2023-04-14T11:49:07.279Z,24.98
2023-04-14T11:50:07.321Z,24.99
2023-04-14T11:51:07.389Z,24.97
2023-04-14T11:52:07.426Z,24.99
2023-04-14T11:53:07.477Z,24.94
2023-04-14T11:54:07.504Z,24.93
2023-04-14T11:55:07.434Z,24.91
2023-04-14T11:56:07.422Z,24.90
2023-04-14T11:57:07.403Z,24.91
2023-04-14T11:58:07.471Z,24.87
2023-04-14T11:59:07.429Z,24.85
2023-04-14T12:00:07.453Z,24.87
2023-04-14T12:01:07.475Z,24.78
2023-04-14T12:02:07.560Z,24.71
2023-04-14T12:03:07.775Z,24.63
2023-04-14T12:04:07.726Z,24.53
2023-04-14T12:05:07.721Z,24.50
2023-04-14T12:06:07.542Z,24.43
2023-04-14T12:07:07.567Z,24.40
2023-04-14T12:08:07.588Z,24.37
2023-04-14T12:09:07.606Z,24.37
2023-04-14T12:10:07.622Z,24.32
2023-04-14T12:11:07.623Z,24.33
2023-04-14T12:12:07.654Z,24.30
2023-04-14T12:13:07.709Z,24.32
2023-04-14T12:14:07.733Z,24.25
2023-04-14T12:15:07.733Z,24.25
2023-04-14T12:16:07.804Z,24.23
2023-04-14T12:17:07.764Z,24.20
2023-04-14T12:18:07.852Z,24.23
2023-04-14T12:19:07.832Z,24.22
2023-04-14T12:20:07.925Z,24.20
2023-04-14T12:21:10.867Z,24.19
2023-04-14T12:22:08.000Z,24.17
2023-04-14T12:23:07.976Z,24.16
2023-04-14T12:24:07.935Z,24.16
2023-04-14T12:25:07.947Z,24.12
2023-04-14T12:26:07.943Z,24.09
2023-04-14T12:27:07.925Z,24.09
2023-04-14T12:28:07.910Z,24.06
2023-04-14T12:29:07.906Z,24.02
2023-04-14T12:30:07.907Z,24.01
2023-04-14T12:31:08.033Z,24.02
2023-04-14T12:32:08.070Z,24.02
2023-04-14T12:33:07.897Z,23.98
2023-04-14T12:34:07.870Z,23.99
2023-04-14T12:35:07.869Z,23.99
2023-04-14T12:36:07.851Z,23.95
2023-04-14T12:37:07.859Z,23.98
2023-04-14T12:38:07.844Z,23.95
2023-04-14T12:39:07.852Z,23.93
2023-04-14T12:40:07.839Z,23.92
2023-04-14T12:41:07.883Z,23.91
2023-04-14T12:42:07.816Z,23.88
2023-04-14T12:43:07.827Z,23.88
2023-04-14T12:44:07.788Z,23.84
2023-04-14T12:45:07.785Z,23.85
2023-04-14T12:46:07.808Z,23.85
2023-04-14T12:47:07.850Z,23.85
2023-04-14T12:48:07.883Z,23.84
2023-04-14T12:49:07.772Z,23.82
2023-04-14T12:50:07.811Z,23.81
2023-04-14T12:51:07.787Z,23.79
2023-04-14T12:52:07.788Z,23.78
2023-04-14T12:53:07.733Z,23.79
2023-04-14T12:54:07.723Z,23.76